sensor_id;sensor_type;location;lat;lon;timestamp;temperature;humidity
37446;DHT22;23307;51.136;14.942;2023-07-09T00:01:43;21.00;86.20
37446;DHT22;23307;51.136;14.942;2023-07-09T00:04:10;21.00;86.00
37446;DHT22;23307;51.136;14.942;2023-07-09T00:06:36;21.00;86.30
37446;DHT22;23307;51.136;14.942;2023-07-09T00:09:01;20.90;86.30
37446;DHT22;23307;51.136;14.942;2023-07-09T00:11:28;20.90;86.80
37446;DHT22;23307;51.136;14.942;2023-07-09T00:13:54;20.90;86.90
37446;DHT22;23307;51.136;14.942;2023-07-09T00:16:23;20.80;87.00
37446;DHT22;23307;51.136;14.942;2023-07-09T00:18:49;20.80;88.00
37446;DHT22;23307;51.136;14.942;2023-07-09T00:21:17;20.70;87.90
37446;DHT22;23307;51.136;14.942;2023-07-09T00:23:43;20.70;88.00
37446;DHT22;23307;51.136;14.942;2023-07-09T00:26:13;20.70;88.50
37446;DHT22;23307;51.136;14.942;2023-07-09T00:28:39;20.80;88.80
37446;DHT22;23307;51.136;14.942;2023-07-09T00:31:05;20.80;88.90
37446;DHT22;23307;51.136;14.942;2023-07-09T00:33:30;20.80;88.70
37446;DHT22;23307;51.136;14.942;2023-07-09T00:35:58;20.60;89.10
37446;DHT22;23307;51.136;14.942;2023-07-09T00:38:24;20.60;89.80
37446;DHT22;23307;51.136;14.942;2023-07-09T00:43:29;20.50;90.00
37446;DHT22;23307;51.136;14.942;2023-07-09T00:48:50;20.40;90.90
37446;DHT22;23307;51.136;14.942;2023-07-09T00:51:18;20.30;91.50
37446;DHT22;23307;51.136;14.942;2023-07-09T00:53:46;20.30;92.00
37446;DHT22;23307;51.136;14.942;2023-07-09T00:56:17;20.20;92.30
37446;DHT22;23307;51.136;14.942;2023-07-09T00:58:45;20.20;93.10
37446;DHT22;23307;51.136;14.942;2023-07-09T01:01:18;20.10;93.30
37446;DHT22;23307;51.136;14.942;2023-07-09T01:03:47;20.00;93.90
37446;DHT22;23307;51.136;14.942;2023-07-09T01:06:18;20.00;94.70
37446;DHT22;23307;51.136;14.942;2023-07-09T01:08:45;19.90;95.70
37446;DHT22;23307;51.136;14.942;2023-07-09T01:11:18;19.90;96.90
37446;DHT22;23307;51.136;14.942;2023-07-09T01:13:51;19.90;98.40
37446;DHT22;23307;51.136;14.942;2023-07-09T01:16:19;19.90;99.40
37446;DHT22;23307;51.136;14.942;2023-07-09T01:18:50;19.80;99.90
37446;DHT22;23307;51.136;14.942;2023-07-09T01:21:15;19.80;99.90
37446;DHT22;23307;51.136;14.942;2023-07-09T01:23:42;19.60;99.90
37446;DHT22;23307;51.136;14.942;2023-07-09T01:26:12;19.50;99.90
37446;DHT22;23307;51.136;14.942;2023-07-09T01:28:38;19.40;99.90
37446;DHT22;23307;51.136;14.942;2023-07-09T01:31:07;19.40;99.90
37446;DHT22;23307;51.136;14.942;2023-07-09T01:33:33;19.40;99.90
37446;DHT22;23307;51.136;14.942;2023-07-09T01:35:58;19.40;99.90
37446;DHT22;23307;51.136;14.942;2023-07-09T01:38:28;19.40;99.90
37446;DHT22;23307;51.136;14.942;2023-07-09T01:40:56;19.40;99.90
37446;DHT22;23307;51.136;14.942;2023-07-09T01:43:22;19.40;99.90
37446;DHT22;23307;51.136;14.942;2023-07-09T01:45:49;19.30;99.90
37446;DHT22;23307;51.136;14.942;2023-07-09T01:48:16;19.20;99.90
37446;DHT22;23307;51.136;14.942;2023-07-09T01:50:42;19.20;99.90
37446;DHT22;23307;51.136;14.942;2023-07-09T01:53:10;19.30;99.90
37446;DHT22;23307;51.136;14.942;2023-07-09T01:55:36;19.30;99.90
37446;DHT22;23307;51.136;14.942;2023-07-09T01:58:02;19.30;99.90
37446;DHT22;23307;51.136;14.942;2023-07-09T02:00:33;19.30;99.90
37446;DHT22;23307;51.136;14.942;2023-07-09T02:03:00;19.30;99.90
37446;DHT22;23307;51.136;14.942;2023-07-09T02:05:28;19.30;99.90
37446;DHT22;23307;51.136;14.942;2023-07-09T02:07:54;19.20;99.90
37446;DHT22;23307;51.136;14.942;2023-07-09T02:10:20;19.10;99.90
37446;DHT22;23307;51.136;14.942;2023-07-09T02:12:46;19.00;99.90
37446;DHT22;23307;51.136;14.942;2023-07-09T02:15:12;18.90;99.90
37446;DHT22;23307;51.136;14.942;2023-07-09T02:17:38;18.90;99.90
37446;DHT22;23307;51.136;14.942;2023-07-09T02:20:05;18.90;99.90
37446;DHT22;23307;51.136;14.942;2023-07-09T02:22:35;18.80;99.90
37446;DHT22;23307;51.136;14.942;2023-07-09T02:25:00;18.70;99.90
37446;DHT22;23307;51.136;14.942;2023-07-09T02:27:26;18.70;99.90
37446;DHT22;23307;51.136;14.942;2023-07-09T02:29:51;18.70;99.90
37446;DHT22;23307;51.136;14.942;2023-07-09T02:32:20;18.70;99.90
37446;DHT22;23307;51.136;14.942;2023-07-09T02:34:46;18.70;99.90
37446;DHT22;23307;51.136;14.942;2023-07-09T02:37:16;18.60;99.90
37446;DHT22;23307;51.136;14.942;2023-07-09T02:39:45;18.60;99.90
37446;DHT22;23307;51.136;14.942;2023-07-09T02:42:11;18.60;99.90
37446;DHT22;23307;51.136;14.942;2023-07-09T02:44:37;18.60;99.90
37446;DHT22;23307;51.136;14.942;2023-07-09T02:47:03;18.60;99.90
37446;DHT22;23307;51.136;14.942;2023-07-09T02:49:29;18.50;99.90
37446;DHT22;23307;51.136;14.942;2023-07-09T02:51:54;18.50;99.90
37446;DHT22;23307;51.136;14.942;2023-07-09T02:54:20;18.50;99.90
37446;DHT22;23307;51.136;14.942;2023-07-09T02:56:45;18.50;99.90
37446;DHT22;23307;51.136;14.942;2023-07-09T02:59:11;18.50;99.90
37446;DHT22;23307;51.136;14.942;2023-07-09T03:01:37;18.50;99.90
37446;DHT22;23307;51.136;14.942;2023-07-09T03:04:03;18.50;99.90
37446;DHT22;23307;51.136;14.942;2023-07-09T03:06:29;18.40;99.90
37446;DHT22;23307;51.136;14.942;2023-07-09T03:08:58;18.40;99.90
37446;DHT22;23307;51.136;14.942;2023-07-09T03:11:24;18.40;99.90
37446;DHT22;23307;51.136;14.942;2023-07-09T03:13:49;18.40;99.90
37446;DHT22;23307;51.136;14.942;2023-07-09T03:16:16;18.40;99.90
37446;DHT22;23307;51.136;14.942;2023-07-09T03:18:42;18.30;99.90
37446;DHT22;23307;51.136;14.942;2023-07-09T03:21:07;18.30;99.90
37446;DHT22;23307;51.136;14.942;2023-07-09T03:23:32;18.30;99.90
37446;DHT22;23307;51.136;14.942;2023-07-09T03:25:58;18.30;99.90
37446;DHT22;23307;51.136;14.942;2023-07-09T03:28:25;18.30;99.90
37446;DHT22;23307;51.136;14.942;2023-07-09T03:30:53;18.30;99.90
37446;DHT22;23307;51.136;14.942;2023-07-09T03:33:19;18.20;99.90
37446;DHT22;23307;51.136;14.942;2023-07-09T03:35:45;18.30;99.90
37446;DHT22;23307;51.136;14.942;2023-07-09T03:38:11;18.30;99.90
37446;DHT22;23307;51.136;14.942;2023-07-09T03:40:37;18.30;99.90
37446;DHT22;23307;51.136;14.942;2023-07-09T03:43:06;18.30;99.90
37446;DHT22;23307;51.136;14.942;2023-07-09T03:45:34;18.30;99.90
37446;DHT22;23307;51.136;14.942;2023-07-09T03:48:00;18.40;99.90
37446;DHT22;23307;51.136;14.942;2023-07-09T03:50:26;18.30;99.90
37446;DHT22;23307;51.136;14.942;2023-07-09T03:52:52;18.30;99.90
37446;DHT22;23307;51.136;14.942;2023-07-09T03:55:17;18.40;99.90
37446;DHT22;23307;51.136;14.942;2023-07-09T03:57:43;18.40;99.90
37446;DHT22;23307;51.136;14.942;2023-07-09T04:00:09;18.50;99.90
37446;DHT22;23307;51.136;14.942;2023-07-09T04:02:39;18.50;99.90
37446;DHT22;23307;51.136;14.942;2023-07-09T04:05:05;18.50;99.90
37446;DHT22;23307;51.136;14.942;2023-07-09T04:07:31;18.60;99.90
37446;DHT22;23307;51.136;14.942;2023-07-09T04:09:56;18.70;99.90
37446;DHT22;23307;51.136;14.942;2023-07-09T04:12:22;18.70;99.90
37446;DHT22;23307;51.136;14.942;2023-07-09T04:14:47;18.70;99.90
37446;DHT22;23307;51.136;14.942;2023-07-09T04:17:13;18.70;99.90
37446;DHT22;23307;51.136;14.942;2023-07-09T04:19:38;18.80;99.90
37446;DHT22;23307;51.136;14.942;2023-07-09T04:22:04;18.80;99.90
37446;DHT22;23307;51.136;14.942;2023-07-09T04:24:31;18.90;99.90
37446;DHT22;23307;51.136;14.942;2023-07-09T04:26:58;19.00;99.90
37446;DHT22;23307;51.136;14.942;2023-07-09T04:29:31;19.00;99.90
37446;DHT22;23307;51.136;14.942;2023-07-09T04:31:59;19.00;99.90
37446;DHT22;23307;51.136;14.942;2023-07-09T04:34:25;19.00;99.90
37446;DHT22;23307;51.136;14.942;2023-07-09T04:36:50;19.10;99.90
37446;DHT22;23307;51.136;14.942;2023-07-09T04:39:16;19.20;99.90
37446;DHT22;23307;51.136;14.942;2023-07-09T04:41:41;19.20;99.90
37446;DHT22;23307;51.136;14.942;2023-07-09T04:44:07;19.30;99.90
37446;DHT22;23307;51.136;14.942;2023-07-09T04:46:33;19.40;99.90
37446;DHT22;23307;51.136;14.942;2023-07-09T04:48:58;19.50;99.90
37446;DHT22;23307;51.136;14.942;2023-07-09T04:51:25;19.70;99.90
37446;DHT22;23307;51.136;14.942;2023-07-09T04:53:51;19.80;99.90
37446;DHT22;23307;51.136;14.942;2023-07-09T04:56:17;20.00;99.90
37446;DHT22;23307;51.136;14.942;2023-07-09T04:58:43;20.10;99.90
37446;DHT22;23307;51.136;14.942;2023-07-09T05:01:08;20.20;99.90
37446;DHT22;23307;51.136;14.942;2023-07-09T05:03:34;20.30;99.90
37446;DHT22;23307;51.136;14.942;2023-07-09T05:05:59;20.40;99.90
37446;DHT22;23307;51.136;14.942;2023-07-09T05:08:25;20.50;99.90
37446;DHT22;23307;51.136;14.942;2023-07-09T05:10:51;20.50;99.90
37446;DHT22;23307;51.136;14.942;2023-07-09T05:13:18;20.60;99.90
37446;DHT22;23307;51.136;14.942;2023-07-09T05:15:47;20.70;99.90
37446;DHT22;23307;51.136;14.942;2023-07-09T05:18:14;20.80;99.90
37446;DHT22;23307;51.136;14.942;2023-07-09T05:20:40;21.00;99.90
37446;DHT22;23307;51.136;14.942;2023-07-09T05:23:06;21.10;99.90
37446;DHT22;23307;51.136;14.942;2023-07-09T05:25:31;21.20;99.90
37446;DHT22;23307;51.136;14.942;2023-07-09T05:27:57;21.30;99.90
37446;DHT22;23307;51.136;14.942;2023-07-09T05:30:23;21.50;99.90
37446;DHT22;23307;51.136;14.942;2023-07-09T05:32:48;21.60;99.90
37446;DHT22;23307;51.136;14.942;2023-07-09T05:35:14;21.70;99.90
37446;DHT22;23307;51.136;14.942;2023-07-09T05:37:40;21.80;99.90
37446;DHT22;23307;51.136;14.942;2023-07-09T05:40:07;21.90;99.90
37446;DHT22;23307;51.136;14.942;2023-07-09T05:42:33;22.00;99.90
37446;DHT22;23307;51.136;14.942;2023-07-09T05:44:59;22.10;99.90
37446;DHT22;23307;51.136;14.942;2023-07-09T05:47:25;22.20;99.90
37446;DHT22;23307;51.136;14.942;2023-07-09T05:49:51;22.40;99.90
37446;DHT22;23307;51.136;14.942;2023-07-09T05:52:18;22.50;99.90
37446;DHT22;23307;51.136;14.942;2023-07-09T05:54:44;22.60;99.90
37446;DHT22;23307;51.136;14.942;2023-07-09T05:57:10;22.80;99.90
37446;DHT22;23307;51.136;14.942;2023-07-09T05:59:35;22.90;99.90
37446;DHT22;23307;51.136;14.942;2023-07-09T06:02:02;23.00;99.90
37446;DHT22;23307;51.136;14.942;2023-07-09T06:04:28;23.10;99.90
37446;DHT22;23307;51.136;14.942;2023-07-09T06:06:53;23.20;99.90
37446;DHT22;23307;51.136;14.942;2023-07-09T06:09:19;23.30;99.90
37446;DHT22;23307;51.136;14.942;2023-07-09T06:11:44;23.50;99.90
37446;DHT22;23307;51.136;14.942;2023-07-09T06:14:10;23.60;99.90
37446;DHT22;23307;51.136;14.942;2023-07-09T06:16:36;23.70;99.90
37446;DHT22;23307;51.136;14.942;2023-07-09T06:19:02;23.80;99.90
37446;DHT22;23307;51.136;14.942;2023-07-09T06:21:28;23.90;99.90
37446;DHT22;23307;51.136;14.942;2023-07-09T06:23:53;24.00;99.90
37446;DHT22;23307;51.136;14.942;2023-07-09T06:26:19;24.10;99.90
37446;DHT22;23307;51.136;14.942;2023-07-09T06:28:45;24.20;99.90
37446;DHT22;23307;51.136;14.942;2023-07-09T06:31:10;24.30;99.90
37446;DHT22;23307;51.136;14.942;2023-07-09T06:33:36;24.40;99.90
37446;DHT22;23307;51.136;14.942;2023-07-09T06:36:01;24.50;99.90
37446;DHT22;23307;51.136;14.942;2023-07-09T06:38:28;24.60;99.90
37446;DHT22;23307;51.136;14.942;2023-07-09T06:40:54;24.60;99.90
37446;DHT22;23307;51.136;14.942;2023-07-09T06:43:20;24.70;99.90
37446;DHT22;23307;51.136;14.942;2023-07-09T06:45:51;24.80;99.90
37446;DHT22;23307;51.136;14.942;2023-07-09T06:48:17;25.00;99.90
37446;DHT22;23307;51.136;14.942;2023-07-09T06:50:42;25.10;99.90
37446;DHT22;23307;51.136;14.942;2023-07-09T06:53:08;25.20;99.90
37446;DHT22;23307;51.136;14.942;2023-07-09T06:55:34;25.30;99.90
37446;DHT22;23307;51.136;14.942;2023-07-09T06:58:00;25.40;99.90
37446;DHT22;23307;51.136;14.942;2023-07-09T07:00:25;25.50;99.90
37446;DHT22;23307;51.136;14.942;2023-07-09T07:02:51;25.60;99.90
37446;DHT22;23307;51.136;14.942;2023-07-09T07:05:17;25.70;99.90
37446;DHT22;23307;51.136;14.942;2023-07-09T07:07:43;25.80;99.90
37446;DHT22;23307;51.136;14.942;2023-07-09T07:10:09;25.90;99.90
37446;DHT22;23307;51.136;14.942;2023-07-09T07:12:43;26.00;99.90
37446;DHT22;23307;51.136;14.942;2023-07-09T07:15:09;26.10;99.90
37446;DHT22;23307;51.136;14.942;2023-07-09T07:17:35;26.20;99.90
37446;DHT22;23307;51.136;14.942;2023-07-09T07:20:00;26.30;99.90
37446;DHT22;23307;51.136;14.942;2023-07-09T07:22:25;26.40;99.90
37446;DHT22;23307;51.136;14.942;2023-07-09T07:24:51;26.50;99.50
37446;DHT22;23307;51.136;14.942;2023-07-09T07:27:17;26.60;98.60
37446;DHT22;23307;51.136;14.942;2023-07-09T07:29:42;26.60;98.30
37446;DHT22;23307;51.136;14.942;2023-07-09T07:32:08;26.80;97.40
37446;DHT22;23307;51.136;14.942;2023-07-09T07:34:34;26.90;97.40
37446;DHT22;23307;51.136;14.942;2023-07-09T07:36:59;27.00;97.10
37446;DHT22;23307;51.136;14.942;2023-07-09T07:39:25;27.10;97.20
37446;DHT22;23307;51.136;14.942;2023-07-09T07:41:50;27.20;96.30
37446;DHT22;23307;51.136;14.942;2023-07-09T07:44:16;27.40;96.10
37446;DHT22;23307;51.136;14.942;2023-07-09T07:46:42;27.50;95.10
37446;DHT22;23307;51.136;14.942;2023-07-09T07:49:08;27.70;94.60
37446;DHT22;23307;51.136;14.942;2023-07-09T07:51:33;27.80;94.00
37446;DHT22;23307;51.136;14.942;2023-07-09T07:53:59;27.80;92.10
37446;DHT22;23307;51.136;14.942;2023-07-09T07:56:24;27.90;91.20
37446;DHT22;23307;51.136;14.942;2023-07-09T07:58:51;28.00;91.80
37446;DHT22;23307;51.136;14.942;2023-07-09T08:01:17;28.20;91.40
37446;DHT22;23307;51.136;14.942;2023-07-09T08:03:43;28.40;91.10
37446;DHT22;23307;51.136;14.942;2023-07-09T08:06:08;28.60;90.00
37446;DHT22;23307;51.136;14.942;2023-07-09T08:08:34;28.80;88.40
37446;DHT22;23307;51.136;14.942;2023-07-09T08:11:05;28.90;84.80
37446;DHT22;23307;51.136;14.942;2023-07-09T08:13:33;29.00;74.90
37446;DHT22;23307;51.136;14.942;2023-07-09T08:15:59;29.20;77.10
37446;DHT22;23307;51.136;14.942;2023-07-09T08:18:25;29.30;74.30
37446;DHT22;23307;51.136;14.942;2023-07-09T08:20:50;29.50;74.00
37446;DHT22;23307;51.136;14.942;2023-07-09T08:23:16;29.70;73.60
37446;DHT22;23307;51.136;14.942;2023-07-09T08:25:41;29.80;73.60
37446;DHT22;23307;51.136;14.942;2023-07-09T08:28:07;30.00;69.90
37446;DHT22;23307;51.136;14.942;2023-07-09T08:30:32;30.10;68.00
37446;DHT22;23307;51.136;14.942;2023-07-09T08:32:58;30.20;66.60
37446;DHT22;23307;51.136;14.942;2023-07-09T08:35:23;30.30;66.20
37446;DHT22;23307;51.136;14.942;2023-07-09T08:37:49;30.50;65.90
37446;DHT22;23307;51.136;14.942;2023-07-09T08:40:16;30.70;64.40
37446;DHT22;23307;51.136;14.942;2023-07-09T08:42:46;30.80;63.20
37446;DHT22;23307;51.136;14.942;2023-07-09T08:45:42;30.90;61.40
37446;DHT22;23307;51.136;14.942;2023-07-09T08:48:42;31.00;60.90
37446;DHT22;23307;51.136;14.942;2023-07-09T08:51:17;31.20;62.30
37446;DHT22;23307;51.136;14.942;2023-07-09T08:53:56;31.40;62.30
37446;DHT22;23307;51.136;14.942;2023-07-09T08:56:23;31.60;60.80
37446;DHT22;23307;51.136;14.942;2023-07-09T08:58:50;31.70;60.10
37446;DHT22;23307;51.136;14.942;2023-07-09T09:01:23;31.70;59.80
37446;DHT22;23307;51.136;14.942;2023-07-09T09:03:52;31.80;60.30
37446;DHT22;23307;51.136;14.942;2023-07-09T09:06:27;32.00;60.10
37446;DHT22;23307;51.136;14.942;2023-07-09T09:09:12;32.10;58.80
37446;DHT22;23307;51.136;14.942;2023-07-09T09:11:46;32.10;57.70
37446;DHT22;23307;51.136;14.942;2023-07-09T09:16:45;32.20;57.50
37446;DHT22;23307;51.136;14.942;2023-07-09T09:19:33;32.40;58.40
37446;DHT22;23307;51.136;14.942;2023-07-09T09:22:06;32.60;57.70
37446;DHT22;23307;51.136;14.942;2023-07-09T09:24:41;32.70;56.30
37446;DHT22;23307;51.136;14.942;2023-07-09T09:27:08;32.70;55.70
37446;DHT22;23307;51.136;14.942;2023-07-09T09:29:34;32.70;51.80
37446;DHT22;23307;51.136;14.942;2023-07-09T09:32:11;32.40;51.60
37446;DHT22;23307;51.136;14.942;2023-07-09T09:34:42;32.60;52.50
37446;DHT22;23307;51.136;14.942;2023-07-09T09:37:10;32.70;52.30
37446;DHT22;23307;51.136;14.942;2023-07-09T09:39:38;32.90;52.60
37446;DHT22;23307;51.136;14.942;2023-07-09T09:42:10;33.10;52.20
37446;DHT22;23307;51.136;14.942;2023-07-09T09:44:36;33.30;51.60
37446;DHT22;23307;51.136;14.942;2023-07-09T09:47:10;33.50;52.50
37446;DHT22;23307;51.136;14.942;2023-07-09T09:49:40;33.50;49.30
37446;DHT22;23307;51.136;14.942;2023-07-09T09:52:14;33.40;50.20
37446;DHT22;23307;51.136;14.942;2023-07-09T09:54:43;33.30;50.90
37446;DHT22;23307;51.136;14.942;2023-07-09T09:57:17;33.30;50.60
37446;DHT22;23307;51.136;14.942;2023-07-09T09:59:45;33.60;50.60
37446;DHT22;23307;51.136;14.942;2023-07-09T10:02:17;33.80;50.60
37446;DHT22;23307;51.136;14.942;2023-07-09T10:04:44;34.00;50.60
37446;DHT22;23307;51.136;14.942;2023-07-09T10:09:50;34.20;49.60
37446;DHT22;23307;51.136;14.942;2023-07-09T10:15:58;34.40;50.10
37446;DHT22;23307;51.136;14.942;2023-07-09T10:18:21;34.60;49.40
37446;DHT22;23307;51.136;14.942;2023-07-09T10:26:27;34.90;48.40
37446;DHT22;23307;51.136;14.942;2023-07-09T10:32:04;35.20;47.80
37446;DHT22;23307;51.136;14.942;2023-07-09T10:34:43;35.20;47.50
37446;DHT22;23307;51.136;14.942;2023-07-09T10:37:28;35.30;46.00
37446;DHT22;23307;51.136;14.942;2023-07-09T10:39:58;35.40;46.20
37446;DHT22;23307;51.136;14.942;2023-07-09T10:42:32;35.50;46.20
37446;DHT22;23307;51.136;14.942;2023-07-09T10:45:31;35.40;45.50
37446;DHT22;23307;51.136;14.942;2023-07-09T10:48:02;35.40;45.20
37446;DHT22;23307;51.136;14.942;2023-07-09T10:50:36;35.50;46.80
37446;DHT22;23307;51.136;14.942;2023-07-09T10:53:12;35.60;46.50
37446;DHT22;23307;51.136;14.942;2023-07-09T10:55:52;35.70;46.90
37446;DHT22;23307;51.136;14.942;2023-07-09T11:00:59;35.60;44.90
37446;DHT22;23307;51.136;14.942;2023-07-09T11:03:38;35.50;45.80
37446;DHT22;23307;51.136;14.942;2023-07-09T11:06:15;35.20;45.20
37446;DHT22;23307;51.136;14.942;2023-07-09T11:08:41;34.90;45.60
37446;DHT22;23307;51.136;14.942;2023-07-09T11:11:17;35.10;47.40
37446;DHT22;23307;51.136;14.942;2023-07-09T11:13:53;35.10;45.20
37446;DHT22;23307;51.136;14.942;2023-07-09T11:16:28;35.10;45.80
37446;DHT22;23307;51.136;14.942;2023-07-09T11:18:58;35.50;46.60
37446;DHT22;23307;51.136;14.942;2023-07-09T11:21:25;35.50;44.00
37446;DHT22;23307;51.136;14.942;2023-07-09T11:23:56;35.50;47.10
37446;DHT22;23307;51.136;14.942;2023-07-09T11:26:26;35.60;45.10
37446;DHT22;23307;51.136;14.942;2023-07-09T11:29:09;35.70;45.60
37446;DHT22;23307;51.136;14.942;2023-07-09T11:31:42;36.00;45.00
37446;DHT22;23307;51.136;14.942;2023-07-09T11:34:18;36.20;45.50
37446;DHT22;23307;51.136;14.942;2023-07-09T11:36:59;36.20;44.00
37446;DHT22;23307;51.136;14.942;2023-07-09T11:39:50;36.10;43.80
37446;DHT22;23307;51.136;14.942;2023-07-09T11:42:32;36.30;45.30
37446;DHT22;23307;51.136;14.942;2023-07-09T11:45:10;36.70;45.90
37446;DHT22;23307;51.136;14.942;2023-07-09T11:47:41;36.80;45.40
37446;DHT22;23307;51.136;14.942;2023-07-09T11:50:29;37.00;44.70
37446;DHT22;23307;51.136;14.942;2023-07-09T11:53:00;37.20;41.50
37446;DHT22;23307;51.136;14.942;2023-07-09T11:55:44;37.00;42.40
37446;DHT22;23307;51.136;14.942;2023-07-09T11:58:12;36.70;42.60
37446;DHT22;23307;51.136;14.942;2023-07-09T12:00:40;36.80;43.30
37446;DHT22;23307;51.136;14.942;2023-07-09T12:03:17;36.80;43.50
37446;DHT22;23307;51.136;14.942;2023-07-09T12:05:51;37.10;44.60
37446;DHT22;23307;51.136;14.942;2023-07-09T12:08:20;37.60;43.20
37446;DHT22;23307;51.136;14.942;2023-07-09T12:10:46;37.80;43.10
37446;DHT22;23307;51.136;14.942;2023-07-09T12:13:12;38.00;42.00
37446;DHT22;23307;51.136;14.942;2023-07-09T12:15:39;38.10;42.40
37446;DHT22;23307;51.136;14.942;2023-07-09T12:18:12;38.40;42.30
37446;DHT22;23307;51.136;14.942;2023-07-09T12:20:38;38.60;41.00
37446;DHT22;23307;51.136;14.942;2023-07-09T12:23:19;38.70;41.90
37446;DHT22;23307;51.136;14.942;2023-07-09T12:25:50;38.80;40.50
37446;DHT22;23307;51.136;14.942;2023-07-09T12:28:17;38.50;41.00
37446;DHT22;23307;51.136;14.942;2023-07-09T12:30:47;38.60;40.80
37446;DHT22;23307;51.136;14.942;2023-07-09T12:33:17;38.60;40.60
37446;DHT22;23307;51.136;14.942;2023-07-09T12:35:44;38.50;39.00
37446;DHT22;23307;51.136;14.942;2023-07-09T12:38:17;38.10;40.40
37446;DHT22;23307;51.136;14.942;2023-07-09T12:40:43;38.30;41.00
37446;DHT22;23307;51.136;14.942;2023-07-09T12:43:10;38.70;40.60
37446;DHT22;23307;51.136;14.942;2023-07-09T12:45:36;38.90;39.40
37446;DHT22;23307;51.136;14.942;2023-07-09T12:48:02;38.90;40.60
37446;DHT22;23307;51.136;14.942;2023-07-09T12:50:34;39.00;38.30
37446;DHT22;23307;51.136;14.942;2023-07-09T12:53:17;38.50;38.20
37446;DHT22;23307;51.136;14.942;2023-07-09T12:55:46;38.50;40.00
37446;DHT22;23307;51.136;14.942;2023-07-09T12:58:21;38.60;38.80
37446;DHT22;23307;51.136;14.942;2023-07-09T13:00:49;38.90;40.50
37446;DHT22;23307;51.136;14.942;2023-07-09T13:03:18;39.30;39.30
37446;DHT22;23307;51.136;14.942;2023-07-09T13:05:57;39.20;37.80
37446;DHT22;23307;51.136;14.942;2023-07-09T13:08:25;39.10;38.90
37446;DHT22;23307;51.136;14.942;2023-07-09T13:10:51;39.10;39.90
37446;DHT22;23307;51.136;14.942;2023-07-09T13:13:20;39.10;39.40
37446;DHT22;23307;51.136;14.942;2023-07-09T13:15:57;39.40;41.00
37446;DHT22;23307;51.136;14.942;2023-07-09T13:18:25;39.60;40.50
37446;DHT22;23307;51.136;14.942;2023-07-09T13:20:51;39.80;40.20
37446;DHT22;23307;51.136;14.942;2023-07-09T13:23:23;40.10;39.10
37446;DHT22;23307;51.136;14.942;2023-07-09T13:25:49;40.10;38.30
37446;DHT22;23307;51.136;14.942;2023-07-09T13:30:41;40.20;38.90
37446;DHT22;23307;51.136;14.942;2023-07-09T13:33:10;40.50;38.20
37446;DHT22;23307;51.136;14.942;2023-07-09T13:35:36;40.50;37.50
37446;DHT22;23307;51.136;14.942;2023-07-09T13:38:02;40.30;35.20
37446;DHT22;23307;51.136;14.942;2023-07-09T13:40:30;39.70;36.60
37446;DHT22;23307;51.136;14.942;2023-07-09T13:42:56;39.60;37.80
37446;DHT22;23307;51.136;14.942;2023-07-09T13:45:24;39.80;37.70
37446;DHT22;23307;51.136;14.942;2023-07-09T13:47:51;40.10;36.50
37446;DHT22;23307;51.136;14.942;2023-07-09T13:50:18;39.50;35.90
37446;DHT22;23307;51.136;14.942;2023-07-09T13:52:44;39.20;38.60
37446;DHT22;23307;51.136;14.942;2023-07-09T13:55:22;39.20;36.50
37446;DHT22;23307;51.136;14.942;2023-07-09T13:57:49;39.00;37.30
37446;DHT22;23307;51.136;14.942;2023-07-09T14:00:16;39.20;39.00
37446;DHT22;23307;51.136;14.942;2023-07-09T14:02:46;39.70;38.60
37446;DHT22;23307;51.136;14.942;2023-07-09T14:05:12;40.20;38.30
37446;DHT22;23307;51.136;14.942;2023-07-09T14:07:40;40.50;37.80
37446;DHT22;23307;51.136;14.942;2023-07-09T14:10:12;40.70;38.80
37446;DHT22;23307;51.136;14.942;2023-07-09T14:12:41;40.80;37.70
37446;DHT22;23307;51.136;14.942;2023-07-09T14:15:25;40.80;37.40
37446;DHT22;23307;51.136;14.942;2023-07-09T14:17:51;40.80;38.00
37446;DHT22;23307;51.136;14.942;2023-07-09T14:20:17;40.90;38.10
37446;DHT22;23307;51.136;14.942;2023-07-09T14:22:43;41.00;37.70
37446;DHT22;23307;51.136;14.942;2023-07-09T14:25:20;41.10;35.90
37446;DHT22;23307;51.136;14.942;2023-07-09T14:27:46;40.90;36.70
37446;DHT22;23307;51.136;14.942;2023-07-09T14:30:16;41.00;37.50
37446;DHT22;23307;51.136;14.942;2023-07-09T14:32:43;41.10;36.70
37446;DHT22;23307;51.136;14.942;2023-07-09T14:35:20;41.10;36.20
37446;DHT22;23307;51.136;14.942;2023-07-09T14:37:47;40.70;36.40
37446;DHT22;23307;51.136;14.942;2023-07-09T14:40:14;40.60;37.20
37446;DHT22;23307;51.136;14.942;2023-07-09T14:42:41;40.80;37.70
37446;DHT22;23307;51.136;14.942;2023-07-09T14:45:19;40.70;36.80
37446;DHT22;23307;51.136;14.942;2023-07-09T14:47:45;40.30;36.70
37446;DHT22;23307;51.136;14.942;2023-07-09T14:50:10;40.20;36.30
37446;DHT22;23307;51.136;14.942;2023-07-09T14:52:40;40.10;35.40
37446;DHT22;23307;51.136;14.942;2023-07-09T14:55:13;40.20;37.60
37446;DHT22;23307;51.136;14.942;2023-07-09T14:57:39;40.50;37.70
37446;DHT22;23307;51.136;14.942;2023-07-09T15:00:05;40.60;37.40
37446;DHT22;23307;51.136;14.942;2023-07-09T15:02:37;40.80;37.50
37446;DHT22;23307;51.136;14.942;2023-07-09T15:05:05;41.20;36.40
37446;DHT22;23307;51.136;14.942;2023-07-09T15:07:32;41.30;36.60
37446;DHT22;23307;51.136;14.942;2023-07-09T15:09:59;41.40;34.90
37446;DHT22;23307;51.136;14.942;2023-07-09T15:12:32;41.00;35.30
37446;DHT22;23307;51.136;14.942;2023-07-09T15:15:28;41.00;36.60
37446;DHT22;23307;51.136;14.942;2023-07-09T15:17:56;41.10;35.80
37446;DHT22;23307;51.136;14.942;2023-07-09T15:20:24;40.90;35.80
37446;DHT22;23307;51.136;14.942;2023-07-09T15:22:52;41.00;36.30
37446;DHT22;23307;51.136;14.942;2023-07-09T15:25:23;41.10;36.00
37446;DHT22;23307;51.136;14.942;2023-07-09T15:27:49;41.00;35.40
37446;DHT22;23307;51.136;14.942;2023-07-09T15:30:16;41.00;35.40
37446;DHT22;23307;51.136;14.942;2023-07-09T15:32:44;41.00;34.30
37446;DHT22;23307;51.136;14.942;2023-07-09T15:35:09;40.80;34.50
37446;DHT22;23307;51.136;14.942;2023-07-09T15:37:35;40.70;35.00
37446;DHT22;23307;51.136;14.942;2023-07-09T15:40:00;40.50;34.00
37446;DHT22;23307;51.136;14.942;2023-07-09T15:42:26;40.40;35.20
37446;DHT22;23307;51.136;14.942;2023-07-09T15:44:51;40.50;35.30
37446;DHT22;23307;51.136;14.942;2023-07-09T15:47:24;40.60;35.10
37446;DHT22;23307;51.136;14.942;2023-07-09T15:49:51;40.60;35.30
37446;DHT22;23307;51.136;14.942;2023-07-09T15:52:16;40.50;35.20